createdAt,value
2022-08-25T00:00:23.249Z,74.17
2022-08-25T00:03:07.100Z,74.13
2022-08-25T00:05:36.176Z,74.30
2022-08-25T00:08:06.611Z,74.41
2022-08-25T00:10:39.003Z,74.34
2022-08-25T00:13:07.492Z,74.48
2022-08-25T00:15:36.781Z,74.68
2022-08-25T00:18:05.704Z,75.05
2022-08-25T00:20:48.845Z,75.03
2022-08-25T00:23:19.520Z,75.25
2022-08-25T00:25:47.948Z,75.35
2022-08-25T00:28:16.984Z,75.34
2022-08-25T00:30:45.651Z,75.43
2022-08-25T00:33:13.997Z,75.47
2022-08-25T00:35:42.862Z,75.40
2022-08-25T00:38:12.707Z,75.71
2022-08-25T00:40:42.254Z,75.69
2022-08-25T00:43:11.585Z,75.82
2022-08-25T00:45:40.738Z,75.95
2022-08-25T00:48:09.042Z,76.45
2022-08-25T00:50:37.340Z,76.47
2022-08-25T00:53:07.469Z,76.54
2022-08-25T00:55:40.253Z,76.44
2022-08-25T00:58:14.742Z,76.40
2022-08-25T01:00:52.255Z,76.26
2022-08-25T01:03:23.815Z,76.38
2022-08-25T01:05:55.878Z,76.38
2022-08-25T01:08:29.640Z,76.34
2022-08-25T01:11:06.479Z,76.50
2022-08-25T01:13:45.622Z,76.32
2022-08-25T01:16:16.328Z,76.31
2022-08-25T01:18:54.679Z,76.37
2022-08-25T01:21:26.506Z,76.16
2022-08-25T01:23:58.373Z,76.10
2022-08-25T01:26:31.344Z,76.01
2022-08-25T01:29:21.116Z,76.09
2022-08-25T01:31:51.903Z,75.95
2022-08-25T01:34:21.468Z,76.06
2022-08-25T01:36:49.888Z,76.00
2022-08-25T01:39:18.465Z,75.99
2022-08-25T01:42:18.229Z,75.82
2022-08-25T01:44:48.760Z,75.84
2022-08-25T01:47:17.052Z,75.81
2022-08-25T01:49:45.497Z,75.79
2022-08-25T01:52:33.702Z,75.77
2022-08-25T01:55:01.877Z,75.89
2022-08-25T01:57:31.859Z,75.90
2022-08-25T02:00:00.533Z,76.08
2022-08-25T02:02:28.860Z,76.02
2022-08-25T02:04:59.879Z,75.86
2022-08-25T02:07:28.233Z,75.85
2022-08-25T02:09:56.477Z,75.88
2022-08-25T02:12:27.057Z,75.84
2022-08-25T02:14:55.253Z,75.86
2022-08-25T02:17:23.830Z,75.87
2022-08-25T02:19:52.385Z,75.89
2022-08-25T02:22:21.379Z,75.99
2022-08-25T02:24:50.610Z,75.77
2022-08-25T02:27:18.924Z,75.82
2022-08-25T02:29:47.522Z,75.99
2022-08-25T02:32:15.957Z,75.95
2022-08-25T02:34:44.288Z,75.89
2022-08-25T02:37:12.993Z,75.93
2022-08-25T02:39:41.183Z,75.87
2022-08-25T02:42:09.431Z,75.94
2022-08-25T02:44:37.678Z,75.75
2022-08-25T02:47:06.063Z,75.70
2022-08-25T02:49:34.310Z,75.57
2022-08-25T02:52:02.868Z,75.46
2022-08-25T02:54:32.036Z,75.41
2022-08-25T02:57:00.295Z,75.47
2022-08-25T02:59:28.992Z,75.52
2022-08-25T03:01:57.220Z,75.68
2022-08-25T03:04:25.485Z,75.73
2022-08-25T03:06:53.843Z,75.87
2022-08-25T03:09:23.131Z,76.05
2022-08-25T03:11:51.278Z,76.13
2022-08-25T03:14:19.475Z,76.17
2022-08-25T03:16:47.725Z,76.40
2022-08-25T03:19:16.941Z,76.50
2022-08-25T03:21:48.511Z,76.71
2022-08-25T03:24:16.671Z,76.91
2022-08-25T03:26:53.935Z,77.15
2022-08-25T03:29:34.332Z,76.88
2022-08-25T03:32:03.069Z,77.29
2022-08-25T03:34:31.393Z,77.41
2022-08-25T03:37:00.162Z,77.32
2022-08-25T03:39:29.131Z,77.43
2022-08-25T03:41:57.391Z,77.60
2022-08-25T03:44:25.559Z,77.72
2022-08-25T03:46:53.809Z,77.78
2022-08-25T03:49:24.403Z,77.86
2022-08-25T03:51:55.101Z,77.85
2022-08-25T03:54:26.290Z,77.81
2022-08-25T03:56:55.115Z,77.85
2022-08-25T03:59:23.483Z,77.95
2022-08-25T04:01:55.251Z,78.15
2022-08-25T04:04:23.999Z,78.03
2022-08-25T04:06:53.100Z,78.09
2022-08-25T04:09:21.450Z,78.39
2022-08-25T04:11:53.207Z,78.40
2022-08-25T04:14:23.761Z,78.48
2022-08-25T04:16:53.294Z,78.53
2022-08-25T04:19:22.468Z,78.45
2022-08-25T04:21:51.920Z,78.32
2022-08-25T04:24:25.774Z,78.20
2022-08-25T04:26:53.965Z,78.30
2022-08-25T04:29:24.212Z,78.17
2022-08-25T04:31:54.932Z,77.98
2022-08-25T04:34:29.503Z,77.95
2022-08-25T04:37:06.395Z,77.75
2022-08-25T04:39:34.730Z,77.55
2022-08-25T04:42:03.900Z,77.36
2022-08-25T04:44:32.600Z,77.15
2022-08-25T04:47:02.105Z,76.91
2022-08-25T04:49:30.356Z,76.71
2022-08-25T04:51:58.698Z,76.42
2022-08-25T04:54:28.233Z,76.12
2022-08-25T04:56:58.710Z,75.86
2022-08-25T04:59:30.192Z,75.59
2022-08-25T05:02:03.198Z,75.13
2022-08-25T05:04:33.533Z,74.80
2022-08-25T05:07:02.581Z,74.46
2022-08-25T05:09:32.605Z,73.96
2022-08-25T05:12:03.260Z,73.69
2022-08-25T05:14:32.949Z,73.40
2022-08-25T05:17:02.185Z,73.18
2022-08-25T05:19:31.552Z,72.91
2022-08-25T05:21:59.792Z,72.61
2022-08-25T05:24:28.270Z,72.30
2022-08-25T05:26:57.831Z,72.33
2022-08-25T05:29:27.077Z,72.23
2022-08-25T05:31:55.488Z,71.88
2022-08-25T05:34:24.933Z,71.55
2022-08-25T05:36:53.170Z,71.32
2022-08-25T05:39:21.428Z,70.93
2022-08-25T05:41:49.714Z,71.09
2022-08-25T05:44:21.113Z,70.76
2022-08-25T05:46:50.281Z,70.84
2022-08-25T05:49:19.584Z,70.95
2022-08-25T05:51:47.826Z,70.82
2022-08-25T05:54:16.152Z,70.80
2022-08-25T05:56:45.610Z,70.67
2022-08-25T05:59:14.164Z,70.65
2022-08-25T06:02:01.140Z,70.50
2022-08-25T06:04:29.824Z,70.28
2022-08-25T06:06:58.052Z,69.87
2022-08-25T06:09:26.584Z,69.58
2022-08-25T06:11:55.576Z,69.54
2022-08-25T06:14:24.791Z,69.15
2022-08-25T06:16:53.466Z,68.75
2022-08-25T06:19:25.762Z,68.24
2022-08-25T06:21:56.874Z,68.36
2022-08-25T06:24:27.371Z,68.36
2022-08-25T06:26:56.883Z,68.22
2022-08-25T06:29:26.314Z,67.60
2022-08-25T06:31:54.632Z,67.57
2022-08-25T06:34:23.929Z,67.23
2022-08-25T06:36:53.096Z,67.27
2022-08-25T06:39:22.804Z,67.04
2022-08-25T06:41:56.502Z,66.97
2022-08-25T06:44:29.532Z,66.57
2022-08-25T06:46:57.858Z,66.54
2022-08-25T06:49:31.842Z,65.99
2022-08-25T06:52:03.232Z,65.42
2022-08-25T06:54:31.437Z,65.00
2022-08-25T06:56:59.708Z,65.14
2022-08-25T06:59:32.496Z,64.86
2022-08-25T07:02:04.531Z,64.74
2022-08-25T07:04:34.771Z,64.48
2022-08-25T07:07:04.327Z,64.39
2022-08-25T07:09:35.294Z,64.24
2022-08-25T07:12:08.121Z,64.34
2022-08-25T07:14:37.106Z,64.43
2022-08-25T07:17:12.105Z,63.66
2022-08-25T07:19:41.254Z,63.60
2022-08-25T07:22:09.556Z,63.18
2022-08-25T07:24:37.777Z,63.29
2022-08-25T07:27:06.104Z,62.99
2022-08-25T07:29:36.905Z,62.88
2022-08-25T07:32:10.894Z,62.96
2022-08-25T07:34:57.535Z,62.90
2022-08-25T07:37:47.978Z,62.76
2022-08-25T07:40:22.625Z,62.52
2022-08-25T07:42:54.976Z,62.38
2022-08-25T07:45:30.631Z,60.40
2022-08-25T07:48:11.821Z,60.06
2022-08-25T07:50:47.706Z,58.95
2022-08-25T07:53:17.573Z,58.37
2022-08-25T07:55:47.289Z,57.80
2022-08-25T07:58:16.107Z,57.08
2022-08-25T08:00:48.588Z,56.75
2022-08-25T08:03:42.228Z,56.15
2022-08-25T08:06:16.368Z,54.01
2022-08-25T08:08:49.279Z,54.85
2022-08-25T08:11:34.580Z,54.87
2022-08-25T08:14:03.713Z,54.85
2022-08-25T08:16:33.025Z,54.84
2022-08-25T08:19:03.105Z,55.23
2022-08-25T08:21:34.939Z,55.04
2022-08-25T08:24:10.712Z,55.11
2022-08-25T08:26:58.123Z,55.30
2022-08-25T08:29:27.731Z,54.70
2022-08-25T08:31:55.999Z,54.58
2022-08-25T08:34:25.196Z,54.87
2022-08-25T08:36:57.234Z,55.07
2022-08-25T08:39:27.416Z,55.21
2022-08-25T08:42:58.632Z,54.50
2022-08-25T08:45:50.350Z,54.82
2022-08-25T08:48:40.597Z,54.28
2022-08-25T08:51:33.069Z,54.25
2022-08-25T08:54:25.457Z,54.16
2022-08-25T08:57:13.253Z,53.54
2022-08-25T08:59:51.814Z,53.56
2022-08-25T09:02:53.763Z,53.59
2022-08-25T09:05:27.350Z,53.17
2022-08-25T09:08:00.996Z,51.07
2022-08-25T09:11:02.744Z,50.60
2022-08-25T09:13:46.088Z,48.17
2022-08-25T09:16:43.633Z,46.88
2022-08-25T09:19:42.864Z,46.40
2022-08-25T09:22:36.782Z,46.63
2022-08-25T09:25:52.684Z,46.01
2022-08-25T09:28:33.009Z,45.20
2022-08-25T09:31:24.348Z,44.31
2022-08-25T09:34:00.168Z,44.95
2022-08-25T09:36:28.693Z,45.74
2022-08-25T09:38:57.724Z,45.41
2022-08-25T09:41:45.915Z,44.84
2022-08-25T09:44:27.181Z,44.80
2022-08-25T09:47:28.015Z,44.12
2022-08-25T09:50:05.410Z,45.10
2022-08-25T09:52:42.325Z,44.43
2022-08-25T09:55:15.929Z,44.28
2022-08-25T09:57:44.300Z,44.57
2022-08-25T10:00:26.065Z,44.25
2022-08-25T10:03:24.750Z,44.02
2022-08-25T10:06:03.014Z,44.22
2022-08-25T10:08:44.637Z,44.35
2022-08-25T10:11:49.434Z,44.94
2022-08-25T10:14:29.475Z,44.73
2022-08-25T10:17:24.809Z,44.84
2022-08-25T10:20:25.421Z,44.53
2022-08-25T10:23:10.863Z,42.25
2022-08-25T10:25:57.827Z,41.96
2022-08-25T10:28:45.405Z,42.05
2022-08-25T10:31:31.812Z,41.54
2022-08-25T10:34:11.789Z,39.26
2022-08-25T10:37:18.576Z,37.58
2022-08-25T10:40:11.019Z,37.10
2022-08-25T10:43:10.591Z,36.50
2022-08-25T10:45:49.625Z,36.12
2022-08-25T10:48:29.322Z,33.90
2022-08-25T10:51:09.464Z,34.39
2022-08-25T10:54:07.903Z,34.88
2022-08-25T10:57:17.457Z,35.99
2022-08-25T10:59:53.418Z,36.11
2022-08-25T11:03:07.860Z,35.81
2022-08-25T11:06:18.823Z,35.76
2022-08-25T11:09:05.803Z,35.73
2022-08-25T11:12:03.322Z,35.69
2022-08-25T11:14:40.066Z,36.17
2022-08-25T11:17:22.601Z,35.77
2022-08-25T11:19:57.754Z,34.29
2022-08-25T11:22:50.448Z,34.09
2022-08-25T11:25:31.259Z,34.04
2022-08-25T11:28:18.394Z,34.53
2022-08-25T11:30:48.184Z,34.58
2022-08-25T11:33:19.469Z,34.51
2022-08-25T11:35:52.522Z,34.91
2022-08-25T11:38:50.428Z,34.53
2022-08-25T11:41:49.863Z,33.92
2022-08-25T11:44:38.824Z,34.15
2022-08-25T11:48:01.990Z,33.81
2022-08-25T11:50:36.674Z,33.56
2022-08-25T11:53:26.751Z,33.70
2022-08-25T11:56:12.645Z,33.93
2022-08-25T11:58:47.652Z,34.25
2022-08-25T12:01:40.094Z,33.73
2022-08-25T12:04:17.468Z,33.33
2022-08-25T12:07:08.905Z,33.76
2022-08-25T12:09:51.047Z,33.78
2022-08-25T12:12:41.486Z,33.51
2022-08-25T12:15:42.090Z,34.01
2022-08-25T12:18:21.881Z,33.87
2022-08-25T12:20:56.460Z,33.73
2022-08-25T12:23:34.937Z,33.49
2022-08-25T12:26:34.215Z,33.72
2022-08-25T12:29:08.143Z,34.00
2022-08-25T12:31:49.554Z,33.29
2022-08-25T12:34:26.797Z,33.65
2022-08-25T12:37:02.241Z,33.98
2022-08-25T12:39:43.369Z,33.88
2022-08-25T12:42:38.680Z,34.17
2022-08-25T12:45:20.367Z,34.28
2022-08-25T12:47:50.647Z,33.42
2022-08-25T12:50:44.554Z,33.64
2022-08-25T12:53:18.004Z,33.69
2022-08-25T12:55:57.588Z,33.64
2022-08-25T12:58:59.834Z,33.49
2022-08-25T13:02:12.096Z,33.76
2022-08-25T13:04:59.280Z,34.12
2022-08-25T13:08:07.376Z,34.24
2022-08-25T13:11:38.969Z,34.12
2022-08-25T13:14:38.614Z,34.06
2022-08-25T13:17:09.574Z,33.80
2022-08-25T13:19:38.884Z,33.63
2022-08-25T13:22:16.034Z,33.12
2022-08-25T13:24:50.843Z,33.11
2022-08-25T13:27:28.325Z,32.59
2022-08-25T13:30:03.487Z,32.98
2022-08-25T13:32:36.218Z,31.88
2022-08-25T13:35:30.345Z,32.11
2022-08-25T13:38:16.574Z,32.25
2022-08-25T13:40:45.594Z,32.18
2022-08-25T13:43:15.200Z,32.10
2022-08-25T13:45:48.186Z,32.05
2022-08-25T13:48:49.347Z,32.22
2022-08-25T13:51:31.542Z,32.33
2022-08-25T13:54:08.452Z,32.35
2022-08-25T13:56:42.408Z,32.24
2022-08-25T13:59:43.023Z,32.44
2022-08-25T14:02:15.339Z,32.58
2022-08-25T14:04:51.559Z,32.26
2022-08-25T14:07:21.066Z,31.39
2022-08-25T14:10:06.073Z,31.43
2022-08-25T14:12:46.462Z,31.62
2022-08-25T14:15:17.741Z,30.89
2022-08-25T14:18:09.979Z,30.34
2022-08-25T14:20:52.163Z,30.05
2022-08-25T14:23:27.488Z,30.45
2022-08-25T14:25:57.844Z,30.83
2022-08-25T14:28:29.516Z,30.71
2022-08-25T14:31:15.239Z,31.04
2022-08-25T14:33:52.287Z,31.40
2022-08-25T14:36:20.849Z,30.15
2022-08-25T14:38:54.579Z,30.39
2022-08-25T14:41:26.718Z,30.83
2022-08-25T14:43:54.984Z,30.99
2022-08-25T14:46:29.247Z,30.84
2022-08-25T14:49:00.183Z,30.86
2022-08-25T14:51:32.696Z,30.96
2022-08-25T14:54:07.373Z,31.07
2022-08-25T14:56:37.722Z,31.03
2022-08-25T14:59:11.111Z,31.23
2022-08-25T15:01:39.608Z,31.47
2022-08-25T15:04:17.593Z,31.71
2022-08-25T15:06:48.486Z,31.74
2022-08-25T15:09:17.305Z,30.80
2022-08-25T15:11:51.692Z,30.74
2022-08-25T15:14:29.222Z,30.96
2022-08-25T15:17:03.713Z,31.33
2022-08-25T15:19:31.952Z,31.26
2022-08-25T15:22:00.639Z,30.78
2022-08-25T15:24:29.585Z,30.90
2022-08-25T15:27:01.344Z,31.27
2022-08-25T15:29:34.897Z,31.60
2022-08-25T15:32:07.095Z,31.24
2022-08-25T15:34:36.640Z,31.27
2022-08-25T15:37:17.200Z,31.38
2022-08-25T15:39:47.086Z,31.86
2022-08-25T15:42:16.721Z,32.05
2022-08-25T15:44:53.205Z,31.76
2022-08-25T15:47:24.239Z,32.15
2022-08-25T15:50:04.221Z,32.16
2022-08-25T15:52:46.576Z,32.39
2022-08-25T15:55:17.464Z,32.59
2022-08-25T15:57:45.788Z,32.48
2022-08-25T16:00:16.721Z,32.45
2022-08-25T16:02:46.424Z,32.45
2022-08-25T16:05:16.190Z,32.33
2022-08-25T16:07:46.208Z,32.49
2022-08-25T16:10:20.788Z,32.61
2022-08-25T16:12:50.477Z,32.57
2022-08-25T16:15:23.766Z,32.63
2022-08-25T16:17:52.328Z,32.71
2022-08-25T16:20:23.481Z,32.73
2022-08-25T16:22:52.135Z,32.78
2022-08-25T16:25:21.018Z,32.96
2022-08-25T16:27:49.861Z,33.17
2022-08-25T16:30:18.971Z,33.21
2022-08-25T16:32:47.661Z,33.12
2022-08-25T16:35:16.493Z,32.97
2022-08-25T16:37:44.804Z,33.19
2022-08-25T16:40:14.743Z,33.32
2022-08-25T16:42:43.328Z,33.41
2022-08-25T16:45:11.893Z,33.67
2022-08-25T16:47:42.724Z,34.02
2022-08-25T16:50:11.697Z,34.44
2022-08-25T16:52:59.327Z,34.86
2022-08-25T16:55:39.854Z,35.22
2022-08-25T16:58:12.628Z,35.56
2022-08-25T17:00:44.782Z,35.66
2022-08-25T17:03:13.198Z,35.75
2022-08-25T17:05:43.214Z,36.18
2022-08-25T17:08:30.506Z,36.96
2022-08-25T17:11:14.302Z,38.24
2022-08-25T17:13:50.292Z,39.39
2022-08-25T17:16:21.260Z,40.13
2022-08-25T17:18:49.584Z,40.24
2022-08-25T17:21:24.499Z,40.40
2022-08-25T17:23:56.115Z,41.02
2022-08-25T17:26:27.782Z,41.54
2022-08-25T17:28:59.744Z,41.80
2022-08-25T17:31:29.993Z,42.23
2022-08-25T17:33:59.606Z,42.70
2022-08-25T17:36:28.831Z,43.21
2022-08-25T17:38:57.276Z,43.29
2022-08-25T17:41:26.094Z,43.67
2022-08-25T17:43:54.437Z,44.25
2022-08-25T17:46:22.807Z,44.25
2022-08-25T17:48:51.378Z,44.39
2022-08-25T17:51:20.987Z,44.68
2022-08-25T17:53:52.625Z,44.93
2022-08-25T17:56:24.148Z,45.46
2022-08-25T17:58:56.385Z,45.78
2022-08-25T18:01:33.126Z,46.23
2022-08-25T18:04:01.812Z,46.44
2022-08-25T18:06:31.254Z,46.58
2022-08-25T18:09:01.678Z,46.91
2022-08-25T18:11:32.072Z,47.04
2022-08-25T18:14:00.855Z,47.56
2022-08-25T18:16:30.847Z,48.07
2022-08-25T18:18:59.195Z,48.25
2022-08-25T18:21:30.920Z,48.44
2022-08-25T18:23:59.504Z,48.75
2022-08-25T18:26:29.696Z,48.77
2022-08-25T18:28:59.108Z,49.06
2022-08-25T18:31:27.829Z,49.49
2022-08-25T18:33:56.092Z,49.79
2022-08-25T18:36:24.306Z,50.30
2022-08-25T18:39:13.650Z,50.22
2022-08-25T18:41:42.886Z,50.38
2022-08-25T18:44:15.588Z,50.72
2022-08-25T18:46:45.411Z,50.70
2022-08-25T18:49:18.897Z,51.18
2022-08-25T18:51:51.016Z,51.26
2022-08-25T18:54:23.735Z,51.30
2022-08-25T18:56:54.898Z,51.47
2022-08-25T18:59:23.630Z,51.77
2022-08-25T19:01:54.328Z,51.85
2022-08-25T19:04:31.250Z,52.00
2022-08-25T19:07:01.910Z,52.02
2022-08-25T19:09:32.146Z,51.65
2022-08-25T19:12:01.977Z,51.84
2022-08-25T19:14:30.840Z,51.94
2022-08-25T19:16:59.420Z,52.17
2022-08-25T19:19:29.220Z,52.05
2022-08-25T19:21:59.331Z,52.12
2022-08-25T19:24:31.226Z,52.36
2022-08-25T19:27:02.382Z,52.44
2022-08-25T19:29:31.563Z,52.74
2022-08-25T19:32:01.349Z,52.59
2022-08-25T19:34:36.496Z,52.79
2022-08-25T19:37:06.568Z,53.01
2022-08-25T19:39:40.425Z,53.34
2022-08-25T19:42:11.290Z,53.39
2022-08-25T19:44:59.111Z,53.43
2022-08-25T19:47:28.013Z,53.64
2022-08-25T19:49:56.233Z,54.02
2022-08-25T19:52:26.576Z,54.14
2022-08-25T19:54:55.104Z,54.23
2022-08-25T19:57:28.372Z,54.57
2022-08-25T20:00:29.292Z,54.50
2022-08-25T20:02:58.397Z,54.87
2022-08-25T20:05:28.893Z,55.08
2022-08-25T20:07:58.199Z,55.13
2022-08-25T20:10:31.645Z,55.01
2022-08-25T20:13:01.540Z,55.24
2022-08-25T20:15:34.348Z,55.09
2022-08-25T20:18:05.631Z,55.35
2022-08-25T20:20:35.497Z,55.58
2022-08-25T20:23:23.537Z,55.70
2022-08-25T20:25:52.872Z,55.93
2022-08-25T20:28:21.199Z,56.31
2022-08-25T20:30:49.445Z,56.28
2022-08-25T20:33:22.558Z,56.72
2022-08-25T20:35:52.940Z,56.47
2022-08-25T20:38:21.689Z,56.53
2022-08-25T20:40:49.891Z,56.61
2022-08-25T20:43:18.086Z,56.52
2022-08-25T20:45:49.466Z,56.80
2022-08-25T20:48:18.158Z,56.62
2022-08-25T20:50:46.431Z,56.73
2022-08-25T20:53:26.417Z,56.80
2022-08-25T20:55:54.721Z,56.91
2022-08-25T20:58:22.973Z,57.30
2022-08-25T21:00:51.914Z,57.78
2022-08-25T21:03:21.029Z,57.76
2022-08-25T21:05:49.459Z,57.77
2022-08-25T21:08:22.219Z,57.85
2022-08-25T21:10:52.100Z,58.05
2022-08-25T21:13:20.357Z,58.22
2022-08-25T21:15:51.081Z,58.44
2022-08-25T21:18:19.348Z,58.43
2022-08-25T21:20:47.566Z,58.64
2022-08-25T21:23:15.765Z,58.65
2022-08-25T21:25:43.960Z,58.80
2022-08-25T21:28:12.560Z,59.00
2022-08-25T21:30:44.697Z,59.47
2022-08-25T21:33:15.544Z,59.72
2022-08-25T21:35:44.254Z,59.52
2022-08-25T21:38:15.268Z,59.61
2022-08-25T21:40:44.895Z,59.88
2022-08-25T21:43:13.379Z,60.13
2022-08-25T21:45:46.693Z,60.40
2022-08-25T21:48:15.804Z,60.54
2022-08-25T21:50:43.986Z,61.11
2022-08-25T21:53:12.153Z,61.04
2022-08-25T21:55:44.188Z,61.03
2022-08-25T21:58:12.485Z,61.14
2022-08-25T22:00:42.076Z,61.13
2022-08-25T22:03:10.435Z,61.06
2022-08-25T22:05:39.443Z,61.17
2022-08-25T22:08:08.899Z,61.11
2022-08-25T22:10:44.804Z,61.09
2022-08-25T22:13:13.021Z,61.21
2022-08-25T22:15:41.233Z,61.30
2022-08-25T22:18:09.424Z,61.39
2022-08-25T22:20:39.175Z,61.53
2022-08-25T22:23:09.981Z,61.42
2022-08-25T22:25:48.768Z,61.50
2022-08-25T22:28:17.144Z,61.47
2022-08-25T22:30:45.370Z,61.76
2022-08-25T22:33:14.124Z,61.61
2022-08-25T22:35:42.849Z,61.60
2022-08-25T22:38:12.457Z,61.54
2022-08-25T22:40:41.108Z,61.45
2022-08-25T22:43:11.026Z,61.60
2022-08-25T22:45:39.652Z,61.75
2022-08-25T22:48:08.187Z,61.81
2022-08-25T22:50:37.727Z,61.84
2022-08-25T22:53:06.029Z,61.90
2022-08-25T22:55:42.033Z,62.22
2022-08-25T22:58:11.769Z,62.48
2022-08-25T23:00:42.290Z,62.49
2022-08-25T23:03:11.153Z,62.53
2022-08-25T23:05:40.717Z,62.71
2022-08-25T23:08:08.957Z,62.74
2022-08-25T23:10:37.170Z,62.72
2022-08-25T23:13:07.121Z,63.16
2022-08-25T23:15:35.943Z,63.32
2022-08-25T23:18:05.188Z,63.62
2022-08-25T23:20:52.125Z,63.33
2022-08-25T23:23:20.344Z,63.34
2022-08-25T23:25:48.537Z,63.43
2022-08-25T23:28:17.672Z,63.33
2022-08-25T23:30:57.091Z,63.49
2022-08-25T23:33:28.316Z,63.55
2022-08-25T23:36:06.691Z,63.70
2022-08-25T23:38:34.916Z,64.00
2022-08-25T23:41:11.517Z,64.34
2022-08-25T23:43:40.618Z,64.39
2022-08-25T23:46:10.421Z,64.51
2022-08-25T23:48:39.217Z,64.41
2022-08-25T23:51:07.884Z,64.34
2022-08-25T23:53:36.772Z,64.64
2022-08-25T23:56:06.265Z,64.57
2022-08-25T23:58:36.069Z,64.41
